createdAt,value
2019-05-19T00:01:06.716Z,100538.09
2019-05-19T00:03:35.050Z,100533.11
2019-05-19T00:06:03.290Z,100543.42
2019-05-19T00:08:33.934Z,100531.83
2019-05-19T00:11:01.893Z,100531.30
2019-05-19T00:13:30.376Z,100527.72
2019-05-19T00:15:58.586Z,100536.36
2019-05-19T00:18:26.820Z,100541.95
2019-05-19T00:20:55.067Z,100535.85
2019-05-19T00:23:23.301Z,100533.40
2019-05-19T00:25:51.515Z,100544.27
2019-05-19T00:28:19.746Z,100536.50
2019-05-19T00:30:47.978Z,100540.44
2019-05-19T00:33:16.290Z,100544.09
2019-05-19T00:35:44.506Z,100539.70
2019-05-19T00:38:12.739Z,100544.98
2019-05-19T00:40:40.980Z,100547.53
2019-05-19T00:43:09.475Z,100551.17
2019-05-19T00:45:37.676Z,100547.88
2019-05-19T00:48:05.924Z,100551.25
2019-05-19T00:50:34.163Z,100547.67
2019-05-19T00:53:02.383Z,100551.06
2019-05-19T00:55:30.599Z,100535.02
2019-05-19T00:57:59.021Z,100534.47
2019-05-19T01:00:27.239Z,100546.70
2019-05-19T01:02:55.512Z,100538.97
2019-05-19T01:05:23.728Z,100540.66
2019-05-19T01:07:51.941Z,100537.34
2019-05-19T01:10:21.899Z,100533.44
2019-05-19T01:12:50.106Z,100542.61
2019-05-19T01:15:18.340Z,100538.20
2019-05-19T01:17:46.567Z,100534.30
2019-05-19T01:20:15.440Z,100532.38
2019-05-19T01:22:43.668Z,100535.47
2019-05-19T01:25:11.907Z,100538.25
2019-05-19T01:27:40.121Z,100531.30
2019-05-19T01:30:10.084Z,100530.74
2019-05-19T01:32:38.418Z,100536.83
2019-05-19T01:35:06.622Z,100535.69
2019-05-19T01:37:34.858Z,100535.97
2019-05-19T01:40:04.001Z,100535.37
2019-05-19T01:42:32.242Z,100526.19
2019-05-19T01:45:00.476Z,100524.23
2019-05-19T01:47:28.683Z,100529.78
2019-05-19T01:50:16.500Z,100530.62
2019-05-19T01:52:26.831Z,100529.77
2019-05-19T01:54:55.096Z,100360.42
2019-05-19T01:57:23.306Z,100528.09
2019-05-19T01:59:51.558Z,100519.77
2019-05-19T02:02:19.787Z,100518.69
2019-05-19T02:04:48.061Z,100509.25
2019-05-19T02:07:16.276Z,100508.97
2019-05-19T02:09:44.485Z,100504.01
2019-05-19T02:12:12.714Z,100505.65
2019-05-19T02:14:40.920Z,100511.74
2019-05-19T02:17:09.169Z,100511.44
2019-05-19T02:19:37.405Z,100505.63
2019-05-19T02:22:05.616Z,100498.39
2019-05-19T02:24:33.849Z,100498.92
2019-05-19T02:27:02.064Z,100495.05
2019-05-19T02:29:30.280Z,100494.73
2019-05-19T02:31:58.505Z,100495.05
2019-05-19T02:34:26.711Z,100495.91
2019-05-19T02:36:54.935Z,100499.30
2019-05-19T02:39:23.226Z,100499.05
2019-05-19T02:41:51.495Z,100501.58
2019-05-19T02:44:20.101Z,100501.87
2019-05-19T02:46:48.323Z,100497.72
2019-05-19T02:49:16.607Z,100501.37
2019-05-19T02:51:46.673Z,100508.06
2019-05-19T02:54:15.076Z,100511.97
2019-05-19T02:56:43.961Z,100516.98
2019-05-19T02:59:12.644Z,100515.33
2019-05-19T03:01:58.982Z,100513.67
2019-05-19T03:04:27.208Z,100520.03
2019-05-19T03:06:55.444Z,100518.10
2019-05-19T03:09:23.681Z,100517.86
2019-05-19T03:11:51.885Z,100526.51
2019-05-19T03:14:20.183Z,100518.19
2019-05-19T03:16:48.417Z,100528.50
2019-05-19T03:19:16.654Z,100521.63
2019-05-19T03:21:44.888Z,100520.80
2019-05-19T03:24:13.121Z,100530.50
2019-05-19T03:26:41.493Z,100534.92
2019-05-19T03:29:11.465Z,100537.69
2019-05-19T03:31:43.780Z,100542.94
2019-05-19T03:34:13.176Z,100545.46
2019-05-19T03:36:41.414Z,100551.27
2019-05-19T03:39:09.628Z,100548.77
2019-05-19T03:41:37.856Z,100551.49
2019-05-19T03:44:06.106Z,100548.73
2019-05-19T03:46:34.313Z,100546.00
2019-05-19T03:49:02.548Z,100547.39
2019-05-19T03:51:32.013Z,100538.22
2019-05-19T03:54:00.372Z,100549.88
2019-05-19T03:56:28.591Z,100555.72
2019-05-19T03:58:56.849Z,100562.11
2019-05-19T04:01:25.056Z,100557.97
2019-05-19T04:03:53.274Z,100552.16
2019-05-19T04:06:21.492Z,100553.81
2019-05-19T04:08:49.707Z,100553.00
2019-05-19T04:11:17.934Z,100552.41
2019-05-19T04:13:46.187Z,100554.09
2019-05-19T04:16:14.422Z,100561.02
2019-05-19T04:18:42.653Z,100564.89
2019-05-19T04:21:10.909Z,100550.53
2019-05-19T04:23:39.207Z,100550.53
2019-05-19T04:26:07.421Z,100564.36
2019-05-19T04:28:35.665Z,100564.05
2019-05-19T04:31:03.891Z,100566.81
2019-05-19T04:33:32.130Z,100565.98
2019-05-19T04:36:00.349Z,100565.44
2019-05-19T04:38:28.580Z,100559.34
2019-05-19T04:40:56.932Z,100560.98
2019-05-19T04:43:25.146Z,100562.37
2019-05-19T04:45:53.356Z,100567.92
2019-05-19T04:48:21.597Z,100561.83
2019-05-19T04:50:49.802Z,100566.03
2019-05-19T04:53:18.015Z,100564.64
2019-05-19T04:55:46.261Z,100557.43
2019-05-19T04:58:14.473Z,100562.97
2019-05-19T05:00:42.705Z,100559.88
2019-05-19T05:03:10.940Z,100561.83
2019-05-19T05:05:39.394Z,100565.44
2019-05-19T05:08:07.626Z,100566.88
2019-05-19T05:10:35.904Z,100563.56
2019-05-19T05:13:04.136Z,100571.89
2019-05-19T05:15:32.370Z,100562.48
2019-05-19T05:18:00.704Z,100558.03
2019-05-19T05:20:28.936Z,100564.11
2019-05-19T05:22:57.170Z,100567.38
2019-05-19T05:25:25.398Z,100555.70
2019-05-19T05:27:53.641Z,100556.79
2019-05-19T05:30:21.854Z,100549.23
2019-05-19T05:32:50.077Z,100549.73
2019-05-19T05:35:18.335Z,100561.91
2019-05-19T05:37:46.641Z,100558.00
2019-05-19T05:40:14.903Z,100555.19
2019-05-19T05:42:43.125Z,100557.91
2019-05-19T05:45:11.352Z,100526.66
2019-05-19T05:47:39.762Z,100558.42
2019-05-19T05:50:07.987Z,100558.94
2019-05-19T05:52:38.960Z,100562.27
2019-05-19T05:55:06.403Z,100568.35
2019-05-19T05:57:34.702Z,100560.02
2019-05-19T06:00:03.271Z,100567.20
2019-05-19T06:02:31.491Z,100559.69
2019-05-19T06:05:00.243Z,100559.07
2019-05-19T06:07:28.468Z,100558.97
2019-05-19T06:09:56.764Z,100556.70
2019-05-19T06:12:25.012Z,100552.95
2019-05-19T06:14:53.951Z,100561.81
2019-05-19T06:17:22.163Z,100562.08
2019-05-19T06:19:50.388Z,100551.24
2019-05-19T06:22:18.611Z,100560.09
2019-05-19T06:24:47.186Z,100558.94
2019-05-19T06:27:15.417Z,100565.84
2019-05-19T06:29:43.635Z,100562.74
2019-05-19T06:32:16.632Z,100557.31
2019-05-19T06:34:45.060Z,100564.67
2019-05-19T06:37:13.414Z,100572.09
2019-05-19T06:39:41.690Z,100569.44
2019-05-19T06:42:10.681Z,100570.77
2019-05-19T06:44:38.900Z,100564.57
2019-05-19T06:47:07.142Z,100570.86
2019-05-19T06:49:35.735Z,100565.39
2019-05-19T06:52:03.996Z,100564.88
2019-05-19T06:54:32.284Z,100568.09
2019-05-19T06:57:00.525Z,100558.46
2019-05-19T06:59:28.768Z,100553.08
2019-05-19T07:01:56.965Z,100567.80
2019-05-19T07:04:25.194Z,100572.34
2019-05-19T07:06:53.572Z,100570.59
2019-05-19T07:09:22.335Z,100572.46
2019-05-19T07:11:50.735Z,100577.06
2019-05-19T07:14:19.674Z,100577.67
2019-05-19T07:16:47.890Z,100459.98
2019-05-19T07:19:16.109Z,100578.83
2019-05-19T07:21:44.314Z,100578.39
2019-05-19T07:24:12.541Z,100577.64
2019-05-19T07:26:40.780Z,100580.92
2019-05-19T07:29:09.017Z,100587.06
2019-05-19T07:31:37.236Z,100589.32
2019-05-19T07:34:05.516Z,100586.97
2019-05-19T07:36:33.686Z,100582.56
2019-05-19T07:39:01.895Z,100586.22
2019-05-19T07:41:30.123Z,100585.89
2019-05-19T07:43:58.366Z,100587.19
2019-05-19T07:46:26.607Z,100599.63
2019-05-19T07:48:54.821Z,100594.73
2019-05-19T07:51:23.038Z,100599.02
2019-05-19T07:53:51.616Z,100594.17
2019-05-19T07:56:19.901Z,100596.08
2019-05-19T07:58:48.122Z,100595.42
2019-05-19T08:01:16.469Z,100592.58
2019-05-19T08:03:44.667Z,100594.95
2019-05-19T08:06:12.917Z,100594.95
2019-05-19T08:08:41.096Z,100601.91
2019-05-19T08:11:09.315Z,100593.55
2019-05-19T08:13:37.553Z,100592.96
2019-05-19T08:16:05.841Z,100596.68
2019-05-19T08:18:34.058Z,100598.34
2019-05-19T08:21:02.279Z,100582.91
2019-05-19T08:23:30.499Z,100585.38
2019-05-19T08:25:58.743Z,100583.59
2019-05-19T08:28:27.233Z,100583.59
2019-05-19T08:30:55.455Z,100594.59
2019-05-19T08:33:23.714Z,100586.89
2019-05-19T08:35:51.941Z,100582.02
2019-05-19T08:38:20.161Z,100445.31
2019-05-19T08:40:48.424Z,100602.13
2019-05-19T08:43:16.731Z,100586.61
2019-05-19T08:45:45.004Z,100584.72
2019-05-19T08:48:13.226Z,100590.08
2019-05-19T08:50:41.437Z,100582.59
2019-05-19T08:53:09.673Z,100582.96
2019-05-19T08:55:37.903Z,100589.16
2019-05-19T08:58:06.161Z,100583.76
2019-05-19T09:00:38.295Z,100583.88
2019-05-19T09:03:04.453Z,100575.14
2019-05-19T09:05:34.032Z,100579.59
2019-05-19T09:08:02.342Z,100585.80
2019-05-19T09:10:30.578Z,100579.61
2019-05-19T09:12:58.795Z,100574.99
2019-05-19T09:15:27.437Z,100570.17
2019-05-19T09:17:55.658Z,100576.91
2019-05-19T09:20:23.881Z,100567.41
2019-05-19T09:22:52.261Z,100571.25
2019-05-19T09:25:20.494Z,100562.02
2019-05-19T09:27:48.714Z,100561.02
2019-05-19T09:30:17.251Z,100562.16
2019-05-19T09:32:45.541Z,100555.62
2019-05-19T09:35:13.919Z,100555.36
2019-05-19T09:37:42.138Z,100554.79
2019-05-19T09:40:10.366Z,100554.11
2019-05-19T09:42:38.598Z,100551.23
2019-05-19T09:45:09.958Z,100550.53
2019-05-19T09:47:38.180Z,100556.45
2019-05-19T09:50:06.412Z,100547.41
2019-05-19T09:52:34.627Z,100547.21
2019-05-19T09:55:02.871Z,100547.05
2019-05-19T09:57:31.131Z,100542.29
2019-05-19T09:59:59.345Z,100547.66
2019-05-19T10:02:27.573Z,100543.48
2019-05-19T10:04:55.787Z,100535.95
2019-05-19T10:07:24.036Z,100529.80
2019-05-19T10:09:59.861Z,100529.28
2019-05-19T10:12:28.241Z,100525.91
2019-05-19T10:14:56.466Z,100528.23
2019-05-19T10:17:24.693Z,100529.45
2019-05-19T10:19:52.939Z,100522.99
2019-05-19T10:22:21.167Z,100527.83
2019-05-19T10:25:04.162Z,100534.98
2019-05-19T10:27:21.613Z,100525.81
2019-05-19T10:29:49.340Z,100522.05
2019-05-19T10:32:17.558Z,100519.23
2019-05-19T10:34:45.802Z,100516.31
2019-05-19T10:37:14.044Z,100516.56
2019-05-19T10:39:42.271Z,100513.96
2019-05-19T10:42:10.486Z,100524.87
2019-05-19T10:44:38.707Z,100515.26
2019-05-19T10:47:06.940Z,100510.35
2019-05-19T10:49:35.179Z,100512.45
2019-05-19T10:52:03.395Z,100516.94
2019-05-19T10:54:32.228Z,100506.81
2019-05-19T10:57:00.476Z,100502.93
2019-05-19T10:59:28.672Z,100502.91
2019-05-19T11:01:57.003Z,100503.83
2019-05-19T11:04:25.612Z,100500.84
2019-05-19T11:06:54.270Z,100495.65
2019-05-19T11:09:22.580Z,100495.34
2019-05-19T11:11:50.781Z,100493.27
2019-05-19T11:14:19.898Z,100488.66
2019-05-19T11:16:48.133Z,100490.86
2019-05-19T11:19:16.403Z,100489.45
2019-05-19T11:21:44.907Z,100488.66
2019-05-19T11:24:13.625Z,100491.47
2019-05-19T11:26:42.548Z,100485.00
2019-05-19T11:29:10.752Z,100480.98
2019-05-19T11:31:39.028Z,100482.63
2019-05-19T11:34:07.239Z,100479.94
2019-05-19T11:36:35.614Z,100485.22
2019-05-19T11:39:05.242Z,100477.98
2019-05-19T11:41:34.905Z,100482.51
2019-05-19T11:44:03.207Z,100479.69
2019-05-19T11:46:31.778Z,100477.48
2019-05-19T11:49:00.349Z,100467.77
2019-05-19T11:51:29.605Z,100468.17
2019-05-19T11:53:58.179Z,100468.98
2019-05-19T11:56:26.573Z,100467.66
2019-05-19T11:58:54.805Z,100464.24
2019-05-19T12:01:24.030Z,100470.72
2019-05-19T12:03:55.357Z,100336.37
2019-05-19T12:06:36.135Z,100454.48
2019-05-19T12:08:52.598Z,100466.86
2019-05-19T12:11:20.832Z,100452.83
2019-05-19T12:13:49.053Z,100451.36
2019-05-19T12:16:17.311Z,100454.58
2019-05-19T12:18:45.552Z,100444.23
2019-05-19T12:21:13.758Z,100442.89
2019-05-19T12:23:42.021Z,100445.78
2019-05-19T12:26:22.593Z,100448.80
2019-05-19T12:28:40.270Z,100452.97
2019-05-19T12:31:08.489Z,100454.90
2019-05-19T12:33:49.636Z,100435.09
2019-05-19T12:36:06.736Z,100438.34
2019-05-19T12:38:35.653Z,100419.13
2019-05-19T12:41:03.884Z,100422.09
2019-05-19T12:43:32.126Z,100430.99
2019-05-19T12:46:00.355Z,100432.53
2019-05-19T12:48:28.660Z,100426.75
2019-05-19T12:50:56.890Z,100425.53
2019-05-19T12:53:25.129Z,100312.23
2019-05-19T12:55:53.366Z,100423.79
2019-05-19T12:58:21.832Z,100422.84
2019-05-19T13:00:50.323Z,100421.88
2019-05-19T13:03:18.566Z,100422.70
2019-05-19T13:05:46.960Z,100421.36
2019-05-19T13:08:15.180Z,100416.41
2019-05-19T13:10:43.407Z,100419.69
2019-05-19T13:13:12.134Z,100292.09
2019-05-19T13:15:41.117Z,100407.41
2019-05-19T13:18:09.337Z,100403.53
2019-05-19T13:20:37.569Z,100413.57
2019-05-19T13:23:05.811Z,100406.78
2019-05-19T13:25:34.013Z,100411.22
2019-05-19T13:28:02.232Z,100411.14
2019-05-19T13:30:30.479Z,100414.34
2019-05-19T13:32:58.727Z,100415.17
2019-05-19T13:35:26.945Z,100415.00
2019-05-19T13:37:55.943Z,100409.22
2019-05-19T13:40:24.174Z,100399.19
2019-05-19T13:42:52.372Z,100396.87
2019-05-19T13:45:20.622Z,100408.02
2019-05-19T13:47:48.837Z,100397.52
2019-05-19T13:50:17.065Z,100401.94
2019-05-19T13:52:45.310Z,100400.34
2019-05-19T13:55:13.569Z,100408.52
2019-05-19T13:57:42.206Z,100400.79
2019-05-19T14:00:12.223Z,100408.62
2019-05-19T14:02:40.474Z,100401.30
2019-05-19T14:05:08.877Z,100392.39
2019-05-19T14:07:37.411Z,100388.53
2019-05-19T14:10:07.331Z,100395.46
2019-05-19T14:12:35.945Z,100385.55
2019-05-19T14:15:06.353Z,100390.77
2019-05-19T14:17:34.640Z,100386.77
2019-05-19T14:20:04.088Z,100389.14
2019-05-19T14:22:34.112Z,100380.30
2019-05-19T14:25:02.347Z,100384.86
2019-05-19T14:27:31.110Z,100382.48
2019-05-19T14:29:59.542Z,100385.00
2019-05-19T14:32:28.770Z,100382.55
2019-05-19T14:34:57.460Z,100385.49
2019-05-19T14:37:26.213Z,100378.06
2019-05-19T14:39:54.910Z,100386.08
2019-05-19T14:42:41.163Z,100381.73
2019-05-19T14:45:09.386Z,100385.76
2019-05-19T14:47:37.608Z,100383.06
2019-05-19T14:50:06.480Z,100387.89
2019-05-19T14:52:35.097Z,100379.28
2019-05-19T14:55:03.381Z,100381.89
2019-05-19T14:57:43.833Z,100378.64
2019-05-19T15:00:01.909Z,100380.61
2019-05-19T15:02:30.131Z,100380.61
2019-05-19T15:04:58.367Z,100372.98
2019-05-19T15:07:26.736Z,100386.02
2019-05-19T15:09:55.462Z,100375.24
2019-05-19T15:12:23.691Z,100366.17
2019-05-19T15:14:51.906Z,100377.80
2019-05-19T15:17:20.413Z,100383.97
2019-05-19T15:19:48.637Z,100372.13
2019-05-19T15:22:17.449Z,100382.56
2019-05-19T15:24:46.249Z,100364.73
2019-05-19T15:27:14.802Z,100373.89
2019-05-19T15:29:43.103Z,100376.04
2019-05-19T15:32:11.338Z,100367.77
2019-05-19T15:34:39.626Z,100374.67
2019-05-19T15:37:08.242Z,100371.51
2019-05-19T15:39:36.469Z,100365.29
2019-05-19T15:42:05.036Z,100383.14
2019-05-19T15:44:33.739Z,100365.30
2019-05-19T15:47:02.010Z,100364.62
2019-05-19T15:49:30.235Z,100349.20
2019-05-19T15:52:03.162Z,100352.19
2019-05-19T15:54:28.492Z,100350.69
2019-05-19T15:56:56.834Z,100355.77
2019-05-19T15:59:25.072Z,100354.66
2019-05-19T16:01:53.309Z,100347.84
2019-05-19T16:04:21.545Z,100354.40
2019-05-19T16:06:49.819Z,100358.86
2019-05-19T16:09:18.055Z,100354.97
2019-05-19T16:11:46.369Z,100355.11
2019-05-19T16:14:14.615Z,100364.02
2019-05-19T16:16:44.473Z,100346.42
2019-05-19T16:19:12.705Z,100354.64
2019-05-19T16:21:40.955Z,100353.46
2019-05-19T16:24:09.255Z,100368.25
2019-05-19T16:26:37.569Z,100363.56
2019-05-19T16:29:05.822Z,100355.92
2019-05-19T16:31:34.218Z,100347.62
2019-05-19T16:34:02.429Z,100359.34
2019-05-19T16:36:30.658Z,100350.06
2019-05-19T16:38:58.888Z,100343.97
2019-05-19T16:41:27.106Z,100353.34
2019-05-19T16:43:55.367Z,100339.28
2019-05-19T16:46:23.573Z,100349.25
2019-05-19T16:48:51.806Z,100353.72
2019-05-19T16:51:20.125Z,100339.75
2019-05-19T16:53:50.018Z,100338.92
2019-05-19T16:56:18.218Z,100342.35
2019-05-19T16:58:46.480Z,100346.79
2019-05-19T17:01:14.770Z,100341.19
2019-05-19T17:03:43.012Z,100329.78
2019-05-19T17:06:11.230Z,100331.80
2019-05-19T17:08:39.460Z,100327.34
2019-05-19T17:11:18.106Z,100326.05
2019-05-19T17:13:37.680Z,100340.03
2019-05-19T17:16:05.910Z,100322.06
2019-05-19T17:18:34.136Z,100327.66
2019-05-19T17:21:02.351Z,100323.91
2019-05-19T17:23:30.574Z,100327.20
2019-05-19T17:25:58.786Z,100323.59
2019-05-19T17:28:27.007Z,100319.94
2019-05-19T17:30:57.755Z,100321.81
2019-05-19T17:33:25.312Z,100328.59
2019-05-19T17:35:53.590Z,100313.47
2019-05-19T17:38:21.822Z,100310.03
2019-05-19T17:40:50.067Z,100313.07
2019-05-19T17:43:18.268Z,100311.70
2019-05-19T17:45:46.503Z,100314.45
2019-05-19T17:48:26.265Z,100315.14
2019-05-19T17:50:44.688Z,100312.53
2019-05-19T17:53:12.950Z,100304.70
2019-05-19T17:55:41.168Z,100308.41
2019-05-19T17:58:09.446Z,100310.98
2019-05-19T18:00:41.474Z,100318.91
2019-05-19T18:03:09.975Z,100304.58
2019-05-19T18:05:38.213Z,100310.26
2019-05-19T18:08:06.506Z,100322.45
2019-05-19T18:10:34.890Z,100313.95
2019-05-19T18:13:03.102Z,100333.08
2019-05-19T18:15:31.333Z,100334.98
2019-05-19T18:17:59.570Z,100315.02
2019-05-19T18:20:27.793Z,100328.34
2019-05-19T18:22:56.096Z,100330.22
2019-05-19T18:25:24.354Z,100319.47
2019-05-19T18:27:52.592Z,100326.25
2019-05-19T18:30:20.878Z,100326.61
2019-05-19T18:32:49.107Z,100329.09
2019-05-19T18:35:17.311Z,100335.21
2019-05-19T18:37:45.529Z,100342.75
2019-05-19T18:40:14.336Z,100339.70
2019-05-19T18:42:42.534Z,100337.33
2019-05-19T18:45:10.769Z,100336.95
2019-05-19T18:47:38.985Z,100340.48
2019-05-19T18:50:07.805Z,100337.98
2019-05-19T18:52:36.054Z,100349.77
2019-05-19T18:55:08.317Z,100344.66
2019-05-19T18:57:36.582Z,100345.55
2019-05-19T19:00:05.898Z,100348.97
2019-05-19T19:02:34.165Z,100358.50
2019-05-19T19:05:02.439Z,100364.64
2019-05-19T19:07:50.447Z,100362.64
2019-05-19T19:10:18.677Z,100371.59
2019-05-19T19:12:47.505Z,100376.89
2019-05-19T19:15:15.744Z,100374.45
2019-05-19T19:17:43.955Z,100386.36
2019-05-19T19:20:12.188Z,100385.42
2019-05-19T19:22:40.406Z,100390.45
2019-05-19T19:25:08.699Z,100394.59
2019-05-19T19:27:36.879Z,100389.05
2019-05-19T19:30:08.957Z,100404.09
2019-05-19T19:32:37.492Z,100404.02
2019-05-19T19:35:06.659Z,100399.52
2019-05-19T19:37:34.862Z,100236.73
2019-05-19T19:40:04.211Z,100405.17
2019-05-19T19:42:32.590Z,100402.31
2019-05-19T19:45:00.977Z,100408.05
2019-05-19T19:47:29.308Z,100414.36
2019-05-19T19:49:59.153Z,100409.52
2019-05-19T19:52:27.450Z,100415.61
2019-05-19T19:54:55.677Z,100405.98
2019-05-19T19:57:24.500Z,100412.21
2019-05-19T19:59:52.663Z,100409.80
2019-05-19T20:02:20.868Z,100412.12
2019-05-19T20:04:49.109Z,100415.00
2019-05-19T20:07:17.350Z,100412.91
2019-05-19T20:09:45.683Z,100418.58
2019-05-19T20:12:14.035Z,100417.55
2019-05-19T20:14:42.235Z,100423.80
2019-05-19T20:17:10.450Z,100426.95
2019-05-19T20:19:38.754Z,100434.61
2019-05-19T20:22:06.985Z,100430.47
2019-05-19T20:24:35.181Z,100446.16
2019-05-19T20:27:03.423Z,100442.06
2019-05-19T20:29:31.636Z,100439.91
2019-05-19T20:31:59.857Z,100439.39
2019-05-19T20:34:28.082Z,100440.83
2019-05-19T20:36:56.318Z,100436.45
2019-05-19T20:39:24.537Z,100435.92
2019-05-19T20:41:52.806Z,100395.64
2019-05-19T20:44:21.035Z,100434.58
2019-05-19T20:46:49.277Z,100432.39
2019-05-19T20:49:17.559Z,100432.47
2019-05-19T20:51:45.803Z,100424.14
2019-05-19T20:54:14.530Z,100428.33
2019-05-19T20:56:42.729Z,100427.80
2019-05-19T20:59:10.945Z,100426.97
2019-05-19T21:01:39.148Z,100420.84
2019-05-19T21:04:07.375Z,100426.14
2019-05-19T21:06:35.657Z,100420.05
2019-05-19T21:09:04.903Z,100421.48
2019-05-19T21:11:33.120Z,100422.67
2019-05-19T21:14:01.363Z,100420.75
2019-05-19T21:16:29.569Z,100421.38
2019-05-19T21:18:57.818Z,100423.37
2019-05-19T21:21:26.047Z,100419.23
2019-05-19T21:23:54.286Z,100425.98
2019-05-19T21:26:22.602Z,100421.33
2019-05-19T21:28:50.815Z,100427.80
2019-05-19T21:31:19.264Z,100325.70
2019-05-19T21:33:47.488Z,100432.95
2019-05-19T21:36:15.731Z,100429.65
2019-05-19T21:38:43.960Z,100425.51
2019-05-19T21:41:12.191Z,100428.33
2019-05-19T21:43:40.415Z,100435.91
2019-05-19T21:46:08.643Z,100440.13
2019-05-19T21:48:36.853Z,100441.55
2019-05-19T21:51:05.074Z,100442.42
2019-05-19T21:53:33.300Z,100430.76
2019-05-19T21:56:01.569Z,100438.03
2019-05-19T21:58:29.837Z,100434.97
2019-05-19T22:00:59.886Z,100433.61
2019-05-19T22:03:28.089Z,100435.59
2019-05-19T22:05:56.307Z,100438.41
2019-05-19T22:08:24.546Z,100439.27
2019-05-19T22:10:52.885Z,100437.05
2019-05-19T22:13:21.084Z,100437.36
2019-05-19T22:15:49.311Z,100430.95
2019-05-19T22:18:17.535Z,100435.12
2019-05-19T22:20:45.839Z,100438.47
2019-05-19T22:23:14.064Z,100432.97
2019-05-19T22:25:42.279Z,100427.16
2019-05-19T22:28:10.580Z,100433.58
2019-05-19T22:30:38.827Z,100438.09
2019-05-19T22:33:07.093Z,100441.22
2019-05-19T22:35:35.310Z,100442.12
2019-05-19T22:38:03.526Z,100446.08
2019-05-19T22:40:31.732Z,100237.36
2019-05-19T22:42:59.968Z,100435.00
2019-05-19T22:45:28.353Z,100444.77
2019-05-19T22:47:56.565Z,100441.70
2019-05-19T22:50:24.790Z,100433.70
2019-05-19T22:52:53.005Z,100435.95
2019-05-19T22:55:21.227Z,100433.78
2019-05-19T22:57:49.487Z,100430.44
2019-05-19T23:00:17.832Z,100422.96
2019-05-19T23:02:46.057Z,100419.95
2019-05-19T23:05:14.867Z,100415.02
2019-05-19T23:07:43.098Z,100416.73
2019-05-19T23:10:11.322Z,100415.92
2019-05-19T23:12:39.551Z,100420.43
2019-05-19T23:15:08.010Z,100412.42
2019-05-19T23:17:36.260Z,100416.09
2019-05-19T23:20:05.105Z,100418.11
2019-05-19T23:22:33.691Z,100425.11
2019-05-19T23:25:01.989Z,100418.77
2019-05-19T23:27:30.218Z,100422.69
2019-05-19T23:29:58.451Z,100418.84
2019-05-19T23:32:26.679Z,100413.89
2019-05-19T23:34:54.967Z,100408.89
2019-05-19T23:37:23.194Z,100421.95
2019-05-19T23:39:54.184Z,100247.59
2019-05-19T23:42:21.462Z,100415.00
2019-05-19T23:44:49.700Z,100412.83
2019-05-19T23:47:17.917Z,100416.41
2019-05-19T23:49:46.250Z,100410.08
2019-05-19T23:52:14.495Z,100407.55
2019-05-19T23:54:42.715Z,100403.66
2019-05-19T23:57:10.937Z,100401.97
2019-05-19T23:59:39.161Z,100402.52
